createdAt,value
2023-05-01T00:01:23.767Z,1.04
2023-05-01T00:02:24.212Z,1.04
2023-05-01T00:04:23.898Z,1.04
2023-05-01T00:05:24.029Z,1.04
2023-05-01T00:06:24.696Z,1.04
2023-05-01T00:08:24.380Z,1.04
2023-05-01T00:10:25.361Z,1.04
2023-05-01T00:11:24.882Z,1.04
2023-05-01T00:12:24.984Z,1.04
2023-05-01T00:13:25.133Z,1.04
2023-05-01T00:14:25.288Z,1.04
2023-05-01T00:15:25.426Z,1.04
2023-05-01T00:16:25.616Z,1.04
2023-05-01T00:17:25.785Z,1.04
2023-05-01T00:18:25.832Z,1.04
2023-05-01T00:19:26.001Z,1.04
2023-05-01T00:20:26.141Z,1.04
2023-05-01T00:21:26.284Z,1.04
2023-05-01T00:22:26.403Z,1.04
2023-05-01T00:23:26.554Z,1.04
2023-05-01T00:24:26.649Z,1.04
2023-05-01T00:25:26.797Z,1.04
2023-05-01T00:26:26.962Z,1.04
2023-05-01T00:27:27.103Z,1.04
2023-05-01T00:28:27.299Z,1.04
2023-05-01T00:29:27.360Z,1.04
2023-05-01T00:30:27.513Z,1.04
2023-05-01T00:31:27.753Z,1.04
2023-05-01T00:32:27.812Z,1.04
2023-05-01T00:33:27.944Z,1.04
2023-05-01T00:34:28.086Z,1.04
2023-05-01T00:35:28.210Z,1.04
2023-05-01T00:36:28.370Z,1.04
2023-05-01T00:37:28.532Z,1.04
2023-05-01T00:38:28.684Z,1.04
2023-05-01T00:39:28.799Z,1.04
2023-05-01T00:40:28.939Z,1.04
2023-05-01T00:41:29.101Z,1.04
2023-05-01T00:42:29.155Z,1.04
2023-05-01T00:43:29.299Z,1.04
2023-05-01T00:44:29.423Z,1.04
2023-05-01T00:45:29.591Z,1.04
2023-05-01T00:46:29.742Z,1.04
2023-05-01T00:47:29.881Z,1.04
2023-05-01T00:48:30.026Z,1.04
2023-05-01T00:49:30.168Z,1.04
2023-05-01T00:50:30.307Z,1.04
2023-05-01T00:51:30.423Z,1.04
2023-05-01T00:52:30.574Z,1.04
2023-05-01T00:53:30.729Z,1.04
2023-05-01T00:54:30.885Z,1.04
2023-05-01T00:55:30.981Z,1.04
2023-05-01T00:56:31.133Z,1.04
2023-05-01T00:57:31.317Z,1.04
2023-05-01T00:58:31.489Z,1.04
2023-05-01T00:59:31.606Z,1.04
2023-05-01T01:00:31.750Z,1.04
2023-05-01T01:01:31.882Z,1.04
2023-05-01T01:02:32.075Z,1.04
2023-05-01T01:03:32.171Z,1.04
2023-05-01T01:04:32.366Z,1.04
2023-05-01T01:05:32.471Z,1.04
2023-05-01T01:06:32.631Z,1.04
2023-05-01T01:07:32.776Z,1.04
2023-05-01T01:08:32.944Z,1.04
2023-05-01T01:09:33.039Z,1.04
2023-05-01T01:10:33.178Z,1.04
2023-05-01T01:11:33.292Z,1.04
2023-05-01T01:12:33.422Z,1.04
2023-05-01T01:13:33.579Z,1.04
2023-05-01T01:14:33.743Z,1.04
2023-05-01T01:15:33.866Z,1.04
2023-05-01T01:16:34.138Z,1.04
2023-05-01T01:17:34.169Z,1.04
2023-05-01T01:18:34.296Z,1.04
2023-05-01T01:19:34.439Z,1.04
2023-05-01T01:20:34.588Z,1.04
2023-05-01T01:21:34.714Z,1.04
2023-05-01T01:22:34.851Z,1.04
2023-05-01T01:23:35.014Z,1.04
2023-05-01T01:24:35.151Z,1.04
2023-05-01T01:25:35.262Z,1.04
2023-05-01T01:26:35.394Z,1.04
2023-05-01T01:27:35.563Z,1.04
2023-05-01T01:28:35.720Z,1.04
2023-05-01T01:29:35.852Z,1.04
2023-05-01T01:30:36.002Z,1.04
2023-05-01T01:31:36.218Z,1.04
2023-05-01T01:32:36.267Z,1.04
2023-05-01T01:33:36.327Z,1.04
2023-05-01T01:34:36.481Z,1.04
2023-05-01T01:35:36.559Z,1.04
2023-05-01T01:36:36.683Z,1.04
2023-05-01T01:37:36.805Z,1.04
2023-05-01T01:38:36.964Z,1.04
2023-05-01T01:39:37.106Z,1.04
2023-05-01T01:40:37.291Z,1.04
2023-05-01T01:41:37.427Z,1.04
2023-05-01T01:42:37.576Z,1.04
2023-05-01T01:43:37.724Z,1.04
2023-05-01T01:44:37.895Z,1.04
2023-05-01T01:45:38.043Z,1.04
2023-05-01T01:46:38.237Z,1.04
2023-05-01T01:47:38.375Z,1.04
2023-05-01T01:48:38.498Z,1.04
2023-05-01T01:49:38.632Z,1.04
2023-05-01T01:50:38.785Z,1.04
2023-05-01T01:51:38.915Z,1.04
2023-05-01T01:52:39.034Z,1.04
2023-05-01T01:53:39.167Z,1.04
2023-05-01T01:54:39.293Z,1.04
2023-05-01T01:55:39.444Z,1.04
2023-05-01T01:56:39.591Z,1.04
2023-05-01T01:57:39.756Z,1.04
2023-05-01T01:58:39.888Z,1.04
2023-05-01T01:59:40.076Z,1.04
2023-05-01T02:00:40.204Z,1.04
2023-05-01T02:01:40.399Z,1.04
2023-05-01T02:02:40.555Z,1.04
2023-05-01T02:03:40.706Z,1.04
2023-05-01T02:04:40.820Z,1.04
2023-05-01T02:05:40.968Z,1.04
2023-05-01T02:06:41.168Z,1.04
2023-05-01T02:07:41.218Z,1.04
2023-05-01T02:08:41.366Z,1.04
2023-05-01T02:09:41.537Z,1.04
2023-05-01T02:10:41.700Z,1.04
2023-05-01T02:11:41.820Z,1.04
2023-05-01T02:12:41.916Z,1.04
2023-05-01T02:13:42.091Z,1.04
2023-05-01T02:14:42.250Z,1.04
2023-05-01T02:15:42.409Z,1.04
2023-05-01T02:16:42.683Z,1.04
2023-05-01T02:17:42.706Z,1.04
2023-05-01T02:18:42.784Z,1.04
2023-05-01T02:19:42.884Z,1.04
2023-05-01T02:20:43.033Z,1.04
2023-05-01T02:21:43.190Z,1.04
2023-05-01T02:22:43.354Z,1.04
2023-05-01T02:23:43.512Z,1.04
2023-05-01T02:24:43.637Z,1.04
2023-05-01T02:25:43.793Z,1.04
2023-05-01T02:26:43.952Z,1.04
2023-05-01T02:27:44.111Z,1.04
2023-05-01T02:28:44.264Z,1.04
2023-05-01T02:29:44.390Z,1.04
2023-05-01T02:30:44.505Z,1.04
2023-05-01T02:31:44.624Z,1.04
2023-05-01T02:32:44.910Z,1.04
2023-05-01T02:33:44.903Z,1.04
2023-05-01T02:34:45.039Z,1.04
2023-05-01T02:35:45.179Z,1.04
2023-05-01T02:36:45.577Z,1.04
2023-05-01T02:37:45.482Z,1.04
2023-05-01T02:38:45.619Z,1.04
2023-05-01T02:39:45.811Z,1.04
2023-05-01T02:40:45.882Z,1.04
2023-05-01T02:41:46.025Z,1.04
2023-05-01T02:42:46.168Z,1.04
2023-05-01T02:43:46.274Z,1.04
2023-05-01T02:44:46.429Z,1.04
2023-05-01T02:45:46.656Z,1.04
2023-05-01T02:46:46.794Z,1.04
2023-05-01T02:47:46.879Z,1.04
2023-05-01T02:48:46.975Z,1.04
2023-05-01T02:49:47.085Z,1.04
2023-05-01T02:50:47.233Z,1.04
2023-05-01T02:51:47.389Z,1.04
2023-05-01T02:52:47.557Z,1.04
2023-05-01T02:53:47.706Z,1.04
2023-05-01T02:54:47.839Z,1.04
2023-05-01T02:55:47.994Z,1.04
2023-05-01T02:56:48.089Z,1.04
2023-05-01T02:57:48.245Z,1.04
2023-05-01T02:58:48.402Z,1.04
2023-05-01T02:59:48.567Z,1.04
2023-05-01T03:00:48.727Z,1.04
2023-05-01T03:02:48.936Z,2
2023-05-01T03:03:49.076Z,2
2023-05-01T03:04:49.286Z,2
2023-05-01T03:05:49.386Z,2
2023-05-01T03:06:49.551Z,3.04
2023-05-01T03:07:49.673Z,3.04
2023-05-01T03:08:49.775Z,3.04
2023-05-01T03:09:49.933Z,4
2023-05-01T03:10:50.074Z,4
2023-05-01T03:11:50.179Z,5.04
2023-05-01T03:12:50.275Z,6
2023-05-01T03:13:50.435Z,6
2023-05-01T03:14:50.568Z,8
2023-05-01T03:15:50.702Z,9.04
2023-05-01T03:16:50.939Z,10
2023-05-01T03:17:51.075Z,11.04
2023-05-01T03:18:51.144Z,13.04
2023-05-01T03:19:51.290Z,15.04
2023-05-01T03:20:51.737Z,17.04
2023-05-01T03:21:51.883Z,20
2023-05-01T03:22:51.736Z,25.04
2023-05-01T03:23:51.847Z,31.04
2023-05-01T03:24:51.986Z,40
2023-05-01T03:25:52.089Z,47.04
2023-05-01T03:26:52.266Z,56
2023-05-01T03:27:54.341Z,68
2023-05-01T03:28:52.564Z,77.04
2023-05-01T03:29:52.719Z,85.04
2023-05-01T03:30:52.850Z,99.04
2023-05-01T03:31:53.043Z,109.04
2023-05-01T03:32:53.255Z,122
2023-05-01T03:33:53.303Z,140
2023-05-01T03:34:53.427Z,157.04
2023-05-01T03:35:53.563Z,174.08
2023-05-01T03:36:53.695Z,197.12
2023-05-01T03:37:53.885Z,223.04
2023-05-01T03:38:54.004Z,241.12
2023-05-01T03:39:54.412Z,262.08
2023-05-01T03:40:54.317Z,276
2023-05-01T03:41:54.464Z,296
2023-05-01T03:42:54.613Z,322.08
2023-05-01T03:43:54.781Z,350.08
2023-05-01T03:44:54.926Z,378.24
2023-05-01T03:45:55.102Z,407.04
2023-05-01T03:46:55.243Z,430.08
2023-05-01T03:47:55.450Z,457.28
2023-05-01T03:48:55.534Z,499.2
2023-05-01T03:49:55.820Z,534.08
2023-05-01T03:50:55.783Z,564.16
2023-05-01T03:51:55.932Z,596.16
2023-05-01T03:52:56.032Z,639.04
2023-05-01T03:53:56.214Z,676.48
2023-05-01T03:54:56.353Z,716.16
2023-05-01T03:55:56.493Z,758.4
2023-05-01T03:56:56.636Z,821.12
2023-05-01T03:57:56.795Z,872.32
2023-05-01T03:58:56.952Z,921.6
2023-05-01T03:59:57.438Z,967.04
2023-05-01T04:00:57.194Z,1013.12
2023-05-01T04:01:57.396Z,1064.32
2023-05-01T04:02:57.784Z,1114.24
2023-05-01T04:03:57.758Z,1177.6
2023-05-01T04:04:57.821Z,1259.52
2023-05-01T04:05:58.010Z,1392.64
2023-05-01T04:06:58.111Z,1463.04
2023-05-01T04:07:58.288Z,1532.16
2023-05-01T04:08:58.407Z,1597.44
2023-05-01T04:09:58.553Z,1674.24
2023-05-01T04:10:58.705Z,1736.96
2023-05-01T04:11:58.865Z,1815.04
2023-05-01T04:12:58.917Z,1931.52
2023-05-01T04:13:59.036Z,2037.76
2023-05-01T04:14:59.174Z,2163.2
2023-05-01T04:15:59.394Z,2259.2
2023-05-01T04:16:59.440Z,2371.84
2023-05-01T04:17:59.659Z,2501.12
2023-05-01T04:18:59.730Z,2659.84
2023-05-01T04:19:59.877Z,2767.36
2023-05-01T04:21:00.045Z,2844.16
2023-05-01T04:22:00.191Z,2908.16
2023-05-01T04:23:00.344Z,3061.76
2023-05-01T04:24:00.431Z,3207.68
2023-05-01T04:25:00.583Z,3368.96
2023-05-01T04:26:00.731Z,3596.8
2023-05-01T04:27:00.861Z,3712
2023-05-01T04:28:01.027Z,3745.28
2023-05-01T04:29:01.141Z,3850.24
2023-05-01T04:30:01.295Z,3957.76
2023-05-01T04:31:01.485Z,3970.56
2023-05-01T04:32:01.703Z,3996.16
2023-05-01T04:33:01.766Z,4049.92
2023-05-01T04:34:01.856Z,4070.4
2023-05-01T04:35:02.016Z,4080.64
2023-05-01T04:36:02.158Z,4096
2023-05-01T04:37:02.307Z,4142.08
2023-05-01T04:38:02.416Z,4229.12
2023-05-01T04:39:02.549Z,4308.48
2023-05-01T04:40:02.708Z,4439.04
2023-05-01T04:41:02.870Z,4544
2023-05-01T04:42:03.005Z,4643.84
2023-05-01T04:43:03.158Z,4682.24
2023-05-01T04:44:03.311Z,4728.32
2023-05-01T04:45:03.461Z,4825.6
2023-05-01T04:46:03.624Z,4912.64
2023-05-01T04:47:03.843Z,5053.44
2023-05-01T04:48:03.885Z,5350.4
2023-05-01T04:49:04.040Z,5678.08
2023-05-01T04:50:04.180Z,6026.24
2023-05-01T04:51:04.350Z,6200.32
2023-05-01T04:52:04.465Z,6353.92
2023-05-01T04:53:04.583Z,6784
2023-05-01T04:54:04.728Z,7326.72
2023-05-01T04:55:04.901Z,7582.72
2023-05-01T04:56:05.052Z,7603.2
2023-05-01T04:57:05.149Z,7577.6
2023-05-01T04:58:05.285Z,7229.44
2023-05-01T04:59:05.448Z,6963.2
2023-05-01T05:00:05.579Z,6835.2
2023-05-01T05:01:05.750Z,6758.4
2023-05-01T05:02:06.038Z,6758.4
2023-05-01T05:03:06.093Z,7080.96
2023-05-01T05:05:06.242Z,8345.6
2023-05-01T05:06:06.449Z,8668.16
2023-05-01T05:07:06.508Z,9159.68
2023-05-01T05:08:06.593Z,9656.319
2023-05-01T05:09:06.756Z,10117.12
2023-05-01T05:10:06.912Z,10670.08
2023-05-01T05:11:07.007Z,10357.76
2023-05-01T05:12:07.115Z,9282.56
2023-05-01T05:13:07.204Z,8616.96
2023-05-01T05:14:07.355Z,8381.44
2023-05-01T05:15:07.977Z,8540.16
2023-05-01T05:16:07.640Z,8376.32
2023-05-01T05:17:07.732Z,8611.84
2023-05-01T05:18:07.949Z,8872.96
2023-05-01T05:19:08.017Z,9047.04
2023-05-01T05:20:08.181Z,8939.52
2023-05-01T05:21:08.318Z,8903.68
2023-05-01T05:22:08.474Z,8903.68
2023-05-01T05:23:08.804Z,9098.24
2023-05-01T05:24:08.727Z,9569.28
2023-05-01T05:25:08.882Z,10106.88
2023-05-01T05:26:09.037Z,10470.399
2023-05-01T05:27:09.168Z,10485.76
2023-05-01T05:28:09.331Z,10393.6
2023-05-01T05:29:09.478Z,10086.399
2023-05-01T05:30:09.588Z,9615.359
2023-05-01T05:31:09.702Z,9681.92
2023-05-01T05:32:09.863Z,10905.6
2023-05-01T05:33:10.006Z,11571.2
2023-05-01T05:34:10.094Z,11837.439
2023-05-01T05:35:10.243Z,12113.92
2023-05-01T05:36:10.352Z,12359.68
2023-05-01T05:37:10.442Z,12206.08
2023-05-01T05:38:10.607Z,12933.12
2023-05-01T05:39:10.753Z,14489.6
2023-05-01T05:40:10.902Z,14858.239
2023-05-01T05:41:11.049Z,14929.92
2023-05-01T05:42:11.199Z,15226.88
2023-05-01T05:43:11.348Z,15267.84
2023-05-01T05:44:11.518Z,15226.88
2023-05-01T05:45:11.660Z,15462.399
2023-05-01T05:46:11.821Z,15738.88
2023-05-01T05:47:11.926Z,16363.52
2023-05-01T05:48:12.164Z,16640
2023-05-01T05:49:12.170Z,16875.52
2023-05-01T05:50:12.281Z,17971.2
2023-05-01T05:51:12.376Z,18339.84
2023-05-01T05:52:12.528Z,18769.92
2023-05-01T05:53:12.670Z,18872.32
2023-05-01T05:54:12.850Z,19578.88
2023-05-01T05:55:12.974Z,19496.96
2023-05-01T05:56:13.134Z,19333.12
2023-05-01T05:57:13.278Z,19865.6
2023-05-01T05:58:13.440Z,20664.32
2023-05-01T05:59:14.484Z,21647.36
2023-05-01T06:00:13.749Z,22261.76
2023-05-01T06:01:13.895Z,22446.08
2023-05-01T06:02:14.017Z,21913.6
2023-05-01T06:03:14.321Z,21749.76
2023-05-01T06:04:14.308Z,20879.36
2023-05-01T06:05:14.492Z,19845.12
2023-05-01T06:06:14.630Z,20336.64
2023-05-01T06:07:14.753Z,20664.32
2023-05-01T06:08:14.897Z,21729.28
2023-05-01T06:09:15.014Z,22630.4
2023-05-01T06:10:15.155Z,24555.52
2023-05-01T06:11:15.309Z,26152.96
2023-05-01T06:12:15.397Z,27607.04
2023-05-01T06:13:15.573Z,27975.68
2023-05-01T06:14:15.716Z,28508.16
2023-05-01T06:15:15.865Z,28917.76
2023-05-01T06:16:16.040Z,28815.36
2023-05-01T06:17:16.185Z,28958.72
2023-05-01T06:18:16.308Z,29306.88
2023-05-01T06:19:16.398Z,30556.16
2023-05-01T06:20:16.577Z,32010.24
2023-05-01T06:21:16.724Z,32337.92
2023-05-01T06:22:17.081Z,32829.44
2023-05-01T06:23:17.139Z,32194.56
2023-05-01T06:25:17.244Z,30556.16
2023-05-01T06:26:17.412Z,30351.36
2023-05-01T06:27:17.591Z,30945.28
2023-05-01T06:28:17.738Z,31252.48
2023-05-01T06:29:17.904Z,33669.12
2023-05-01T06:30:18.032Z,35983.36
2023-05-01T06:31:18.267Z,31498.24
2023-05-01T06:32:18.294Z,30945.28
2023-05-01T06:33:18.438Z,29388.8
2023-05-01T06:34:18.545Z,29716.48
2023-05-01T06:35:18.690Z,29470.72
2023-05-01T06:36:18.841Z,28364.8
2023-05-01T06:37:18.995Z,23388.16
2023-05-01T06:38:19.094Z,23019.52
2023-05-01T06:39:19.197Z,27607.04
2023-05-01T06:40:19.350Z,29941.76
2023-05-01T06:41:19.470Z,30351.36
2023-05-01T06:42:19.597Z,31313.92
2023-05-01T06:43:19.688Z,31866.88
2023-05-01T06:44:19.794Z,31600.64
2023-05-01T06:45:19.941Z,33464.32
2023-05-01T06:46:20.122Z,32788.48
2023-05-01T06:47:20.269Z,34365.44
2023-05-01T06:48:20.405Z,38297.6
2023-05-01T06:49:20.577Z,40243.2
2023-05-01T06:50:20.712Z,40591.36
2023-05-01T06:51:20.870Z,41267.2
2023-05-01T06:52:21.033Z,42557.44
2023-05-01T06:53:21.181Z,43294.72
2023-05-01T06:54:21.325Z,46612.48
2023-05-01T06:55:21.474Z,46694.4
2023-05-01T06:56:21.575Z,46735.36
2023-05-01T06:57:21.736Z,44892.16
2023-05-01T06:58:24.263Z,47308.8
2023-05-01T06:59:22.030Z,47595.52
2023-05-01T07:00:22.176Z,48128
2023-05-01T07:01:22.482Z,47390.72
2023-05-01T07:02:22.482Z,44441.6
2023-05-01T07:03:22.645Z,41185.28
2023-05-01T07:04:22.738Z,41205.76
2023-05-01T07:05:22.894Z,43950.08
2023-05-01T07:06:23.090Z,48742.4
2023-05-01T07:07:23.192Z,45260.8
2023-05-01T07:08:23.391Z,45875.2
2023-05-01T07:09:23.511Z,38072.32
2023-05-01T07:10:23.647Z,37969.92
2023-05-01T07:11:23.793Z,49889.28
2023-05-01T07:12:23.917Z,48373.76
2023-05-01T07:13:24.070Z,52224
2023-05-01T07:14:24.210Z,52224
2023-05-01T07:15:24.345Z,50585.6
2023-05-01T07:16:24.544Z,51568.64
2023-05-01T07:17:24.701Z,54394.88
2023-05-01T07:18:24.763Z,57016.32
2023-05-01T07:19:24.913Z,58572.8
2023-05-01T07:20:25.061Z,60252.16
2023-05-01T07:21:25.217Z,61194.24
2023-05-01T07:22:25.359Z,63528.96
2023-05-01T07:23:25.529Z,66027.52
2023-05-01T07:24:25.618Z,66150.4
2023-05-01T07:25:25.771Z,69181.44
2023-05-01T07:26:25.910Z,70574.08
2023-05-01T07:27:26.066Z,71352.32
2023-05-01T07:28:26.220Z,70369.28
2023-05-01T07:29:26.366Z,70410.24
2023-05-01T07:30:26.558Z,70123.52
2023-05-01T07:31:26.651Z,70328.32
2023-05-01T07:32:26.803Z,72048.64
2023-05-01T07:33:26.939Z,73113.6
2023-05-01T07:34:27.113Z,72663.04
2023-05-01T07:35:27.238Z,73564.16
2023-05-01T07:36:27.392Z,73932.8
2023-05-01T07:37:27.546Z,76144.64
2023-05-01T07:38:27.687Z,76431.36
2023-05-01T07:39:27.831Z,72744.96
2023-05-01T07:40:28.005Z,65331.2
2023-05-01T07:41:28.139Z,65699.84
2023-05-01T07:42:28.259Z,56893.44
2023-05-01T07:43:28.402Z,55459.84
2023-05-01T07:44:28.575Z,50831.36
2023-05-01T07:45:28.674Z,53084.16
2023-05-01T07:46:28.847Z,61112.32
2023-05-01T07:47:28.978Z,65904.64
2023-05-01T07:48:29.056Z,69386.24
2023-05-01T07:49:29.213Z,71598.08
2023-05-01T07:50:29.364Z,74055.68
2023-05-01T07:51:29.536Z,74629.12
2023-05-01T07:52:29.672Z,73359.36
2023-05-01T07:53:29.824Z,75694.08
2023-05-01T07:54:29.994Z,75694.08
2023-05-01T07:55:30.146Z,73564.16
2023-05-01T07:56:30.214Z,73728
2023-05-01T07:57:30.370Z,76349.44
2023-05-01T07:58:30.550Z,77086.72
2023-05-01T07:59:30.686Z,78643.2
2023-05-01T08:00:30.790Z,78356.48
2023-05-01T08:01:30.931Z,79298.56
2023-05-01T08:02:31.115Z,82739.2
2023-05-01T08:03:31.239Z,80732.16
2023-05-01T08:04:31.368Z,80035.84
2023-05-01T08:05:31.483Z,81674.24
2023-05-01T08:06:31.716Z,81018.88
2023-05-01T08:07:31.721Z,80527.36
2023-05-01T08:08:31.897Z,83189.76
2023-05-01T08:09:32.036Z,83271.68
2023-05-01T08:10:32.186Z,81633.28
2023-05-01T08:11:32.316Z,81879.04
2023-05-01T08:12:32.453Z,83230.72
2023-05-01T08:13:32.594Z,81510.4
2023-05-01T08:14:32.704Z,77004.8
2023-05-01T08:15:33.158Z,79708.16
2023-05-01T08:16:32.980Z,77537.28
2023-05-01T08:17:33.636Z,74547.2
2023-05-01T08:19:33.309Z,72130.56
2023-05-01T08:20:33.462Z,79872
2023-05-01T08:21:33.615Z,83353.6
2023-05-01T08:22:33.767Z,87408.64
2023-05-01T08:23:33.930Z,85606.4
2023-05-01T08:24:34.067Z,88145.92
2023-05-01T08:25:34.219Z,87982.08
2023-05-01T08:26:34.372Z,84131.84
2023-05-01T08:27:34.531Z,88145.92
2023-05-01T08:28:34.677Z,84131.84
2023-05-01T08:29:34.826Z,87900.16
2023-05-01T08:30:34.929Z,81182.72
2023-05-01T08:31:35.094Z,83476.48
2023-05-01T08:32:35.254Z,68321.28
2023-05-01T08:33:35.398Z,82288.64
2023-05-01T08:34:35.567Z,78725.12
2023-05-01T08:35:35.677Z,73728
2023-05-01T08:36:35.855Z,74506.24
2023-05-01T08:37:36.011Z,80322.56
2023-05-01T08:38:36.105Z,88801.28
2023-05-01T08:39:36.257Z,90112
2023-05-01T08:40:36.391Z,88145.92
2023-05-01T08:41:36.549Z,94126.08
2023-05-01T08:42:36.646Z,97812.48
2023-05-01T08:43:36.800Z,98877.44
2023-05-01T08:44:36.958Z,96583.68
2023-05-01T08:45:37.052Z,97812.48
2023-05-01T08:46:37.258Z,96583.68
2023-05-01T08:47:37.413Z,94863.36
2023-05-01T08:48:37.450Z,93388.8
2023-05-01T08:49:37.623Z,86097.92
2023-05-01T08:50:37.764Z,90275.84
2023-05-01T08:51:37.916Z,90931.2
2023-05-01T08:52:38.055Z,90439.68
2023-05-01T08:53:38.224Z,93552.64
2023-05-01T08:54:38.360Z,94781.44
2023-05-01T08:55:38.504Z,92651.52
2023-05-01T08:56:38.678Z,95518.72
2023-05-01T08:57:38.749Z,86999.04
2023-05-01T08:58:38.925Z,95928.32
2023-05-01T08:59:39.066Z,97239.04
2023-05-01T09:00:39.162Z,99123.2
2023-05-01T09:01:39.355Z,96337.91
2023-05-01T09:02:39.498Z,92241.91
2023-05-01T09:03:39.669Z,93306.88
2023-05-01T09:04:39.829Z,71598.08
2023-05-01T09:05:39.877Z,63733.76
2023-05-01T09:06:40.075Z,62341.12
2023-05-01T09:07:40.128Z,68689.92
2023-05-01T09:08:40.279Z,80486.4
2023-05-01T09:09:40.383Z,89784.32
2023-05-01T09:10:40.533Z,95191.04
2023-05-01T09:11:40.700Z,91258.88
2023-05-01T09:12:40.835Z,93552.64
2023-05-01T09:13:40.997Z,93634.55
2023-05-01T09:14:41.156Z,99860.48
2023-05-01T09:15:41.257Z,99778.55
2023-05-01T09:16:41.425Z,99287.04
2023-05-01T09:17:41.582Z,100597.76
2023-05-01T09:18:41.697Z,98959.36
2023-05-01T09:19:41.864Z,91013.12
2023-05-01T09:20:41.994Z,81797.12
2023-05-01T09:21:42.145Z,78684.16
2023-05-01T09:22:42.308Z,64266.24
2023-05-01T09:23:42.451Z,63406.08
2023-05-01T09:24:42.620Z,71475.2
2023-05-01T09:25:42.761Z,62013.44
2023-05-01T09:26:42.917Z,80240.64
2023-05-01T09:27:43.093Z,89620.48
2023-05-01T09:28:43.170Z,95436.8
2023-05-01T09:29:43.325Z,92979.2
2023-05-01T09:30:43.428Z,95027.2
2023-05-01T09:31:43.620Z,91668.48
2023-05-01T09:32:43.754Z,95109.12
2023-05-01T09:33:43.875Z,89538.55
2023-05-01T09:34:44.033Z,76062.72
2023-05-01T09:35:44.125Z,54272
2023-05-01T09:36:44.293Z,48373.76
2023-05-01T09:37:45.218Z,51486.72
2023-05-01T09:38:44.573Z,53084.16
2023-05-01T09:39:44.736Z,65822.72
2023-05-01T09:40:44.887Z,76226.56
2023-05-01T09:41:45.043Z,90603.52
2023-05-01T09:42:45.190Z,89866.23
2023-05-01T09:43:45.345Z,85934.08
2023-05-01T09:44:45.428Z,80732.16
2023-05-01T09:45:45.589Z,73236.48
2023-05-01T09:46:45.727Z,76963.84
2023-05-01T09:47:45.903Z,72581.12
2023-05-01T09:48:46.025Z,71843.84
2023-05-01T09:49:46.124Z,89210.88
2023-05-01T09:50:46.297Z,91586.55
2023-05-01T09:51:46.407Z,99778.55
2023-05-01T09:52:46.575Z,101171.2
2023-05-01T09:53:46.693Z,100433.91
2023-05-01T09:54:46.860Z,102154.23
2023-05-01T09:55:47.015Z,102236.16
2023-05-01T09:56:47.149Z,105512.96
2023-05-01T09:57:47.265Z,103874.55
2023-05-01T09:58:47.365Z,107479.04
2023-05-01T09:59:47.498Z,108462.08
2023-05-01T10:00:47.615Z,105021.44
2023-05-01T10:01:47.820Z,103219.2
2023-05-01T10:02:48.053Z,101744.64
2023-05-01T10:03:48.078Z,106987.52
2023-05-01T10:04:48.144Z,101089.28
2023-05-01T10:05:48.278Z,95518.72
2023-05-01T10:06:48.417Z,89128.96
2023-05-01T10:07:48.531Z,82165.76
2023-05-01T10:08:48.698Z,87244.8
2023-05-01T10:09:48.832Z,80199.68
2023-05-01T10:10:48.987Z,70205.44
2023-05-01T10:11:49.178Z,59432.96
2023-05-01T10:12:49.294Z,63733.76
2023-05-01T10:13:49.428Z,65085.44
2023-05-01T10:14:49.591Z,63610.88
2023-05-01T10:15:49.745Z,65331.2
2023-05-01T10:16:49.917Z,72048.64
2023-05-01T10:17:50.031Z,80035.84
2023-05-01T10:18:50.162Z,94863.36
2023-05-01T10:19:50.295Z,101007.36
2023-05-01T10:20:50.409Z,100679.68
2023-05-01T10:21:50.556Z,103792.64
2023-05-01T10:22:50.751Z,104284.16
2023-05-01T10:23:50.855Z,106332.16
2023-05-01T10:24:51.296Z,101662.72
2023-05-01T10:25:51.059Z,105103.36
2023-05-01T10:26:51.234Z,97484.8
2023-05-01T10:27:51.319Z,101253.12
2023-05-01T10:28:51.543Z,101662.72
2023-05-01T10:29:51.620Z,100270.08
2023-05-01T10:30:52.051Z,98713.6
2023-05-01T10:31:52.042Z,88309.76
2023-05-01T10:32:52.097Z,73687.04
2023-05-01T10:33:52.147Z,76185.6
2023-05-01T10:34:52.256Z,81346.56
2023-05-01T10:35:52.380Z,89702.4
2023-05-01T10:36:52.515Z,91832.32
2023-05-01T10:37:52.694Z,89866.23
2023-05-01T10:38:52.830Z,83066.88
2023-05-01T10:39:52.963Z,59392
2023-05-01T10:40:53.105Z,62054.4
2023-05-01T10:41:53.231Z,35860.48
2023-05-01T10:42:53.393Z,33443.84
2023-05-01T10:43:53.541Z,30433.28
2023-05-01T10:44:53.785Z,31866.88
2023-05-01T10:45:53.913Z,31723.52
2023-05-01T10:46:54.146Z,33239.04
2023-05-01T10:47:54.208Z,36741.12
2023-05-01T10:48:54.297Z,48578.56
2023-05-01T10:49:54.439Z,101580.8
2023-05-01T10:50:54.541Z,112721.91
2023-05-01T10:51:54.699Z,103137.28
2023-05-01T10:52:54.866Z,107069.44
2023-05-01T10:53:54.994Z,107069.44
2023-05-01T10:54:55.291Z,110018.55
2023-05-01T10:55:55.315Z,99287.04
2023-05-01T10:56:55.468Z,107479.04
2023-05-01T10:57:55.571Z,111984.64
2023-05-01T10:58:55.722Z,112148.48
2023-05-01T10:59:55.812Z,115015.68
2023-05-01T11:00:55.963Z,117882.88
2023-05-01T11:01:56.131Z,118292.48
2023-05-01T11:02:56.250Z,119439.36
2023-05-01T11:03:56.332Z,114032.64
2023-05-01T11:04:56.858Z,109281.28
2023-05-01T11:05:56.633Z,105021.44
2023-05-01T11:06:56.745Z,107315.2
2023-05-01T11:07:56.881Z,106577.91
2023-05-01T11:08:57.023Z,109199.36
2023-05-01T11:09:57.165Z,104529.91
2023-05-01T11:10:57.330Z,100352
2023-05-01T11:11:57.476Z,96501.76
2023-05-01T11:12:57.630Z,97075.2
2023-05-01T11:13:57.780Z,100188.16
2023-05-01T11:14:58.200Z,99123.2
2023-05-01T11:15:58.132Z,109035.52
2023-05-01T11:16:58.196Z,110100.48
2023-05-01T11:17:58.432Z,108052.48
2023-05-01T11:18:58.482Z,108462.08
2023-05-01T11:19:58.606Z,106823.68
2023-05-01T11:20:58.756Z,105267.2
2023-05-01T11:21:58.902Z,104120.32
2023-05-01T11:22:58.992Z,104120.32
2023-05-01T11:23:59.148Z,99532.8
2023-05-01T11:24:59.457Z,101990.4
2023-05-01T11:25:59.465Z,109527.04
2023-05-01T11:26:59.560Z,108953.59
2023-05-01T11:27:59.716Z,110673.91
2023-05-01T11:28:59.807Z,111165.44
2023-05-01T11:29:59.958Z,109608.96
2023-05-01T11:31:00.128Z,108625.91
2023-05-01T11:32:00.330Z,110018.55
2023-05-01T11:33:00.471Z,109772.8
2023-05-01T11:34:00.580Z,110018.55
2023-05-01T11:35:01.224Z,109854.72
2023-05-01T11:37:01.850Z,103137.28
2023-05-01T11:39:01.624Z,93061.12
2023-05-01T11:40:01.427Z,85770.23
2023-05-01T11:41:01.578Z,86016
2023-05-01T11:42:01.769Z,80977.92
2023-05-01T11:43:01.877Z,76840.96
2023-05-01T11:44:02.381Z,79093.76
2023-05-01T11:45:02.188Z,80650.24
2023-05-01T11:46:03.469Z,80486.4
2023-05-01T11:48:04.318Z,81715.2
2023-05-01T11:49:03.504Z,86179.84
2023-05-01T11:50:03.162Z,81879.04
2023-05-01T11:51:02.989Z,86671.36
2023-05-01T11:52:03.124Z,92160
2023-05-01T11:53:03.558Z,89784.32
2023-05-01T11:54:03.716Z,93224.96
2023-05-01T11:55:04.356Z,84951.04
2023-05-01T11:56:06.912Z,91258.88
2023-05-01T11:57:03.801Z,99450.88
2023-05-01T11:58:03.953Z,102236.16
2023-05-01T11:59:04.734Z,102809.6
2023-05-01T12:00:04.905Z,100925.44
2023-05-01T12:02:05.275Z,102563.84
2023-05-01T12:03:04.747Z,90439.68
2023-05-01T12:04:04.868Z,101089.28
2023-05-01T12:05:04.939Z,88719.36
2023-05-01T12:06:05.058Z,82493.44
2023-05-01T12:07:05.169Z,88637.44
2023-05-01T12:08:05.316Z,89456.64
2023-05-01T12:09:05.465Z,93552.64
2023-05-01T12:10:05.627Z,92405.76
2023-05-01T12:11:05.753Z,106168.32
2023-05-01T12:12:05.883Z,110428.16
2023-05-01T12:13:06.028Z,107888.64
2023-05-01T12:14:06.190Z,108462.08
2023-05-01T12:15:06.288Z,113295.36
2023-05-01T12:16:06.446Z,110428.16
2023-05-01T12:17:06.607Z,106414.08
2023-05-01T12:18:06.844Z,110919.68
2023-05-01T12:19:06.883Z,89784.32
2023-05-01T12:20:07.037Z,91422.72
2023-05-01T12:21:07.190Z,96583.68
2023-05-01T12:22:07.340Z,87244.8
2023-05-01T12:23:07.511Z,89784.32
2023-05-01T12:24:07.647Z,92651.52
2023-05-01T12:25:07.805Z,87818.23
2023-05-01T12:26:07.952Z,93716.48
2023-05-01T12:27:08.102Z,99778.55
2023-05-01T12:28:08.256Z,105431.04
2023-05-01T12:29:08.411Z,112967.68